Time;durP1;ratioP1;P1;durP2;ratioP2;P2;SDS_P1;SDS_P2;PMS_P1;PMS_P2;Temp;Humidity;BMP_temperature;BMP_pressure;BME280_temperature;BME280_humidity;BME280_pressure;Samples;Min_cycle;Max_cycle;Signal;HPM_P1;HPM_P2
2022/12/13 00:01:44;;;;;;;46.60;18.08;;;-3.10;99.90;;;;;;5032661;28;20038;-77
2022/12/13 00:04:10;;;;;;;44.40;17.85;;;-3.10;99.90;;;;;;5032820;28;20515;-76
2022/12/13 00:06:36;;;;;;;50.47;18.60;;;-3.10;99.90;;;;;;5015871;28;20041;-77
2022/12/13 00:09:03;;;;;;;52.00;19.23;;;-3.10;99.90;;;;;;5032328;28;20091;-76
2022/12/13 00:11:29;;;;;;;46.83;18.45;;;-3.10;99.90;;;;;;5015844;28;20037;-76
2022/12/13 00:13:55;;;;;;;49.20;18.13;;;-3.10;99.90;;;;;;5032576;28;20076;-76
2022/12/13 00:16:24;;;;;;;49.78;18.65;;;-3.10;99.90;;;;;;5032699;28;20072;-77
2022/12/13 00:18:54;;;;;;;43.50;17.15;;;-1.90;99.90;;;;;;5032073;28;20401;-76
2022/12/13 00:21:21;;;;;;;47.25;18.27;;;-3.10;99.90;;;;;;5032556;28;20044;-77
2022/12/13 00:23:47;;;;;;;48.22;17.90;;;-3.20;99.90;;;;;;5032017;28;20045;-77
2022/12/13 00:26:15;;;;;;;51.13;18.75;;;-3.10;99.90;;;;;;5015819;28;20037;-76
2022/12/13 00:28:41;;;;;;;54.50;19.20;;;-3.10;99.90;;;;;;5031967;28;20076;-77
2022/12/13 00:31:07;;;;;;;49.17;19.55;;;-2.10;99.90;;;;;;5032042;28;20517;-77
2022/12/13 00:33:33;;;;;;;;;;;-3.20;99.90;;;;;;5032220;28;20071;-77
2022/12/13 00:36:02;;;;;;;47.83;17.55;;;-3.20;99.90;;;;;;5031900;28;20355;-77
2022/12/13 00:38:28;;;;;;;46.22;18.60;;;-3.20;99.90;;;;;;5032007;28;20462;-77
2022/12/13 00:40:54;;;;;;;46.58;18.70;;;-3.20;99.90;;;;;;5048651;28;20120;-75
2022/12/13 00:43:19;;;;;;;45.75;17.98;;;-3.20;99.90;;;;;;5032113;28;20033;-75
2022/12/13 00:45:45;;;;;;;47.03;17.15;;;-3.20;99.90;;;;;;5048608;28;20037;-78
2022/12/13 00:48:11;;;;;;;45.38;18.42;;;-3.20;99.90;;;;;;5048200;28;20045;-76
2022/12/13 00:50:37;;;;;;;50.42;18.92;;;-3.30;99.90;;;;;;5047468;28;20187;-77
2022/12/13 00:53:03;;;;;;;;;;;-3.30;99.90;;;;;;5031933;28;20033;-76
2022/12/13 00:55:29;;;;;;;40.38;17.20;;;-2.80;99.90;;;;;;5031687;28;19932;-77
2022/12/13 00:57:54;;;;;;;41.08;17.50;;;-3.10;99.90;;;;;;5031904;28;20454;-77
2022/12/13 01:00:20;;;;;;;45.97;18.00;;;-3.30;99.90;;;;;;5031817;28;20041;-77
2022/12/13 01:02:46;;;;;;;44.33;16.92;;;-3.40;99.90;;;;;;5048224;28;20044;-77
2022/12/13 01:05:15;;;;;;;48.13;18.15;;;-3.40;99.90;;;;;;5031704;28;20486;-77
2022/12/13 01:07:43;;;;;;;46.75;17.77;;;-2.30;99.90;;;;;;5047669;28;20050;-77
2022/12/13 01:10:10;;;;;;;41.85;17.10;;;-3.30;99.90;;;;;;5047789;28;20053;-77
2022/12/13 01:12:37;;;;;;;49.63;17.67;;;-3.30;99.90;;;;;;5031496;28;20391;-77
2022/12/13 01:15:04;;;;;;;46.63;17.67;;;-3.40;99.90;;;;;;5031458;28;20037;-77
2022/12/13 01:17:30;;;;;;;40.08;16.75;;;-3.40;99.90;;;;;;5014881;28;20485;-77
2022/12/13 01:19:56;;;;;;;46.08;17.77;;;-3.40;99.90;;;;;;5014473;28;20049;-76
2022/12/13 01:22:22;;;;;;;47.70;18.30;;;-3.40;99.90;;;;;;5031054;28;20033;-75
2022/12/13 01:24:47;;;;;;;50.80;18.55;;;-3.40;99.90;;;;;;5014810;28;20125;-76
2022/12/13 01:27:13;;;;;;;42.65;18.23;;;-3.10;99.90;;;;;;5048254;28;20144;-76
2022/12/13 01:29:39;;;;;;;48.63;18.92;;;-3.40;99.90;;;;;;5046999;28;20107;-76
2022/12/13 01:32:05;;;;;;;48.13;16.67;;;-3.40;99.90;;;;;;5030816;28;21207;-76
2022/12/13 01:34:30;;;;;;;45.60;18.10;;;-3.40;99.90;;;;;;5047590;28;20053;-76
2022/12/13 01:36:56;;;;;;;44.08;18.15;;;-3.40;99.90;;;;;;5030885;28;20040;-76
2022/12/13 01:39:22;;;;;;;45.20;18.33;;;-3.40;99.90;;;;;;5045316;28;20042;-76
2022/12/13 01:41:51;;;;;;;43.85;17.00;;;-3.40;99.90;;;;;;5014118;28;20037;-77
2022/12/13 01:44:54;;;;;;;44.58;16.35;;;-3.40;99.90;;;;;;5030978;28;20044;-77
2022/12/13 01:47:43;;;;;;;39.88;17.95;;;-3.50;99.90;;;;;;5030198;28;20049;-77
2022/12/13 01:50:14;;;;;;;49.83;17.38;;;-3.50;99.90;;;;;;5028620;28;20037;-77
2022/12/13 01:52:41;;;;;;;41.97;16.90;;;-3.50;99.90;;;;;;5030519;28;20048;-77
2022/12/13 01:55:08;;;;;;;44.72;16.80;;;-3.50;99.90;;;;;;5047164;28;20037;-77
2022/12/13 01:57:38;;;;;;;42.80;17.42;;;-3.50;99.90;;;;;;5014091;28;20038;-77
2022/12/13 02:00:06;;;;;;;44.03;17.80;;;-3.50;99.90;;;;;;5029743;28;20037;-77
2022/12/13 02:02:32;;;;;;;49.63;18.00;;;-3.60;99.90;;;;;;5030640;28;20045;-77
2022/12/13 02:05:21;;;;;;;39.90;16.67;;;-3.60;99.90;;;;;;5046481;28;20040;-77
2022/12/13 02:07:47;;;;;;;49.17;18.55;;;-3.60;99.90;;;;;;5027591;28;20465;-76
2022/12/13 02:10:13;;;;;;;;;;;-3.60;99.90;;;;;;5047673;28;20041;-76
2022/12/13 02:12:40;;;;;;;52.92;18.33;;;-3.60;99.90;;;;;;5030072;28;19924;-76
2022/12/13 02:15:15;;;;;;;55.30;20.08;;;-3.60;99.90;;;;;;5029918;28;20050;-76
2022/12/13 02:17:59;;;;;;;47.58;19.58;;;-3.60;99.90;;;;;;5030008;28;20043;-77
2022/12/13 02:21:07;;;;;;;44.92;18.83;;;-3.70;99.90;;;;;;5046687;28;20041;-76
2022/12/13 02:24:11;;;;;;;46.47;18.77;;;-3.60;99.90;;;;;;5013635;28;20401;-77
2022/12/13 02:27:07;;;;;;;42.03;17.55;;;-3.60;99.90;;;;;;4973575;28;20100;-76
2022/12/13 02:30:06;;;;;;;40.90;16.33;;;-3.60;99.90;;;;;;5029895;28;20081;-76
2022/12/13 02:32:53;;;;;;;41.58;17.85;;;-3.60;99.90;;;;;;5028158;28;20132;-76
2022/12/13 02:35:22;;;;;;;;;;;-3.60;99.90;;;;;;5046822;28;20114;-76
2022/12/13 02:38:12;;;;;;;39.83;16.70;;;-2.20;99.90;;;;;;5027166;28;19929;-76
2022/12/13 02:41:01;;;;;;;46.88;16.50;;;-3.60;99.90;;;;;;5027607;28;20115;-76
2022/12/13 02:43:52;;;;;;;42.58;17.38;;;-3.60;99.90;;;;;;5009885;28;20041;-76
2022/12/13 02:46:21;;;;;;;42.47;16.42;;;-3.60;99.90;;;;;;5013242;28;20044;-76
2022/12/13 02:48:50;;;;;;;43.40;16.33;;;-3.60;99.90;;;;;;5029463;28;20048;-75
2022/12/13 02:51:17;;;;;;;40.78;16.80;;;-3.60;99.90;;;;;;5025178;28;20076;-76
2022/12/13 02:53:45;;;;;;;42.25;17.17;;;-3.60;99.90;;;;;;5029881;28;20501;-76
2022/12/13 02:56:11;;;;;;;42.33;17.08;;;-3.70;99.90;;;;;;5029765;28;20120;-75
2022/12/13 02:58:46;;;;;;;43.60;17.23;;;-3.70;99.90;;;;;;5012453;28;20045;-77
2022/12/13 03:01:33;;;;;;;41.70;16.42;;;-3.70;99.90;;;;;;5027585;28;20033;-76
2022/12/13 03:04:07;;;;;;;45.55;16.85;;;-3.70;99.90;;;;;;5045101;28;20037;-76
2022/12/13 03:06:59;;;;;;;44.50;16.77;;;-3.80;99.90;;;;;;5045413;28;20121;-76
2022/12/13 03:09:53;;;;;;;41.13;16.92;;;-3.80;99.90;;;;;;5028669;28;20120;-76
2022/12/13 03:15:12;;;;;;;40.50;16.45;;;-3.90;99.90;;;;;;5032755;28;20042;-77
2022/12/13 03:18:01;;;;;;;39.63;15.82;;;-3.90;99.90;;;;;;5033374;28;20037;-76
2022/12/13 03:20:28;;;;;;;40.38;17.00;;;-3.90;99.90;;;;;;5033486;28;20049;-76
2022/12/13 03:22:55;;;;;;;40.15;16.85;;;-3.90;99.90;;;;;;5033052;28;20037;-76
2022/12/13 03:25:23;;;;;;;37.72;16.10;;;-3.90;99.90;;;;;;5049865;28;20035;-77
2022/12/13 03:27:50;;;;;;;38.80;15.20;;;-4.00;99.90;;;;;;5033152;28;20037;-76
2022/12/13 03:30:18;;;;;;;;;;;-4.00;99.90;;;;;;5033871;28;20044;-76
2022/12/13 03:32:44;;;;;;;42.75;15.63;;;-4.00;99.90;;;;;;5033335;28;20381;-77
2022/12/13 03:35:09;;;;;;;39.05;15.55;;;-4.00;99.90;;;;;;5049931;28;20056;-76
2022/12/13 03:37:35;;;;;;;38.55;14.80;;;-4.00;99.90;;;;;;5049726;28;20124;-77
2022/12/13 03:40:01;;;;;;;45.83;17.17;;;-4.00;99.90;;;;;;5016652;28;20042;-77
2022/12/13 03:42:27;;;;;;;40.30;15.55;;;-4.00;99.90;;;;;;5033323;28;20481;-76
2022/12/13 03:44:52;;;;;;;43.92;16.70;;;-4.00;99.90;;;;;;5032627;28;20083;-76
2022/12/13 03:47:18;;;;;;;38.15;15.82;;;-4.00;99.90;;;;;;5032922;28;20412;-76
2022/12/13 03:49:44;;;;;;;43.10;16.23;;;-4.00;99.90;;;;;;5016420;28;20465;-77
2022/12/13 03:52:09;;;;;;;38.70;15.45;;;-4.00;99.90;;;;;;5049284;28;20041;-77
2022/12/13 03:54:35;;;;;;;40.80;17.13;;;-4.00;99.90;;;;;;5032892;28;20398;-77
2022/12/13 03:57:01;;;;;;;36.58;15.48;;;-4.00;99.90;;;;;;5033009;28;20044;-76
2022/12/13 03:59:26;;;;;;;36.25;15.40;;;-4.00;99.90;;;;;;5032788;28;20045;-77
2022/12/13 04:01:52;;;;;;;38.35;15.70;;;-4.10;99.90;;;;;;5015822;28;20033;-77
2022/12/13 04:04:18;;;;;;;38.70;16.35;;;-3.00;99.90;;;;;;5049466;28;20034;-77
2022/12/13 04:06:44;;;;;;;43.42;15.80;;;-4.10;99.90;;;;;;5049512;28;20033;-77
2022/12/13 04:09:09;;;;;;;41.42;15.45;;;-2.60;99.90;;;;;;5048879;28;20047;-77
2022/12/13 04:14:19;;;;;;;30.50;14.95;;;-4.00;99.90;;;;;;5032723;28;20142;-77
2022/12/13 04:16:45;;;;;;;43.88;15.55;;;-4.00;99.90;;;;;;5049173;28;20124;-77
2022/12/13 04:19:10;;;;;;;33.17;15.13;;;-4.00;99.90;;;;;;5031868;28;20033;-76
2022/12/13 04:21:36;;;;;;;34.05;15.35;;;-4.00;99.90;;;;;;5049055;28;20054;-76
2022/12/13 04:24:02;;;;;;;38.45;16.35;;;-4.00;99.90;;;;;;5014616;28;20505;-77
2022/12/13 04:26:28;;;;;;;38.67;15.63;;;-4.00;99.90;;;;;;5032358;28;20171;-77
2022/12/13 04:28:54;;;;;;;40.88;16.83;;;-4.00;99.90;;;;;;5032237;28;20045;-77
2022/12/13 04:31:20;;;;;;;37.15;14.35;;;-4.00;99.90;;;;;;5015839;28;20048;-76
2022/12/13 04:33:45;;;;;;;41.55;16.77;;;-4.00;99.90;;;;;;5031762;28;20077;-77
2022/12/13 04:36:18;;;;;;;38.97;15.82;;;-4.00;99.90;;;;;;5015564;28;20081;-77
2022/12/13 04:38:45;;;;;;;34.22;14.65;;;-4.00;99.90;;;;;;5031939;28;20393;-77
2022/12/13 04:41:14;;;;;;;;;;;-4.00;99.90;;;;;;5032176;28;20041;-77
2022/12/13 04:43:40;;;;;;;34.88;15.27;;;-4.00;99.90;;;;;;5031930;28;19923;-77
2022/12/13 04:46:05;;;;;;;42.10;15.75;;;-4.00;99.90;;;;;;5031688;28;20489;-77
2022/12/13 04:48:32;;;;;;;32.72;14.77;;;-4.10;99.90;;;;;;5015453;28;20085;-77
2022/12/13 04:50:59;;;;;;;39.53;16.15;;;-4.10;99.90;;;;;;5048732;28;20457;-77
2022/12/13 04:53:24;;;;;;;33.25;14.95;;;-4.10;99.90;;;;;;5048533;28;20037;-77
2022/12/13 04:55:51;;;;;;;39.10;17.00;;;-4.10;99.90;;;;;;5031678;28;20397;-77
2022/12/13 04:58:17;;;;;;;35.03;15.60;;;-4.10;99.90;;;;;;5031160;28;20037;-77
2022/12/13 05:00:43;;;;;;;36.55;16.42;;;-4.10;99.90;;;;;;5048178;28;20041;-77
2022/12/13 05:03:08;;;;;;;40.53;15.68;;;-4.10;99.90;;;;;;5048253;28;20405;-78
2022/12/13 05:05:39;;;;;;;37.22;14.38;;;-4.10;99.90;;;;;;5031940;28;20033;-75
2022/12/13 05:08:05;;;;;;;38.70;15.50;;;-4.10;99.90;;;;;;5031551;28;20069;-76
2022/12/13 05:10:31;;;;;;;37.85;15.18;;;-4.10;99.90;;;;;;5031719;28;20038;-77
2022/12/13 05:12:58;;;;;;;38.03;17.10;;;-4.10;99.90;;;;;;4998307;28;20068;-77
2022/12/13 05:15:24;;;;;;;39.33;15.73;;;-4.20;99.90;;;;;;5031842;28;20037;-75
2022/12/13 05:17:50;;;;;;;39.33;16.08;;;-4.10;99.90;;;;;;5031426;28;20040;-76
2022/12/13 05:20:15;;;;;;;37.88;15.77;;;-4.10;99.90;;;;;;5031010;28;20113;-76
2022/12/13 05:22:41;;;;;;;37.03;16.00;;;-4.10;99.90;;;;;;5014770;28;20493;-75
2022/12/13 05:25:07;;;;;;;32.70;14.52;;;-4.10;99.90;;;;;;5014197;28;20049;-77
2022/12/13 05:27:33;;;;;;;37.53;15.68;;;-4.10;99.90;;;;;;5031324;28;20045;-78
2022/12/13 05:29:59;;;;;;;35.67;15.15;;;-4.10;99.90;;;;;;5031531;28;20338;-78
2022/12/13 05:32:24;;;;;;;35.17;16.40;;;-4.20;99.90;;;;;;5014601;28;20033;-78
2022/12/13 05:34:50;;;;;;;33.10;15.18;;;-4.10;99.90;;;;;;4998271;28;20056;-78
2022/12/13 05:37:16;;;;;;;35.63;16.25;;;-4.00;99.90;;;;;;5030958;28;20080;-79
2022/12/13 05:39:41;;;;;;;30.77;14.27;;;-4.00;99.90;;;;;;5031747;28;20515;-80
2022/12/13 05:42:09;;;;;;;34.72;15.65;;;-4.00;99.90;;;;;;5044982;28;20072;-80
2022/12/13 05:44:34;;;;;;;32.92;14.93;;;-4.00;99.90;;;;;;5031096;28;20149;-79
2022/12/13 05:47:00;;;;;;;36.00;15.75;;;-4.00;99.90;;;;;;5046787;28;20521;-80
2022/12/13 05:49:26;;;;;;;32.92;14.88;;;-4.00;99.90;;;;;;5031013;28;20044;-79
2022/12/13 05:51:52;;;;;;;37.28;16.38;;;-4.10;99.90;;;;;;5031236;28;20045;-79
2022/12/13 05:54:18;;;;;;;45.13;16.58;;;-4.10;99.90;;;;;;5030794;28;20039;-77
2022/12/13 05:56:43;;;;;;;32.95;14.05;;;-4.10;99.90;;;;;;5031086;28;20049;-79
2022/12/13 05:59:09;;;;;;;38.45;16.13;;;-4.10;99.90;;;;;;5047059;28;20049;-76
2022/12/13 06:01:35;;;;;;;35.00;15.30;;;-4.10;99.90;;;;;;5046500;28;20036;-74
2022/12/13 06:04:00;;;;;;;33.70;15.25;;;-4.10;99.90;;;;;;5029926;28;20033;-74
2022/12/13 06:06:26;;;;;;;33.47;15.23;;;-4.10;99.90;;;;;;5046846;28;20041;-74
2022/12/13 06:08:52;;;;;;;32.60;14.98;;;-4.10;99.90;;;;;;5046661;28;20044;-74
2022/12/13 06:11:17;;;;;;;37.13;16.33;;;-4.10;99.90;;;;;;5046236;28;20198;-74
2022/12/13 06:13:43;;;;;;;35.70;15.02;;;-2.80;99.90;;;;;;5013811;28;20049;-74
2022/12/13 06:16:11;;;;;;;40.10;15.80;;;-4.10;99.90;;;;;;5046238;28;20053;-74
2022/12/13 06:18:37;;;;;;;37.05;16.65;;;-4.20;99.90;;;;;;5030016;28;20386;-74
2022/12/13 06:21:05;;;;;;;35.42;15.60;;;-4.20;99.90;;;;;;5046272;28;20037;-73
2022/12/13 06:23:34;;;;;;;38.13;16.42;;;-4.20;99.90;;;;;;5029941;28;20711;-73
2022/12/13 06:26:05;;;;;;;34.50;15.35;;;-4.20;99.90;;;;;;5029960;28;20029;-73
2022/12/13 06:28:32;;;;;;;32.95;14.23;;;-4.10;99.90;;;;;;5027873;28;20041;-74
2022/12/13 06:31:02;;;;;;;37.70;16.80;;;-4.20;99.90;;;;;;5030017;28;20493;-74
2022/12/13 06:33:28;;;;;;;35.85;15.10;;;-4.20;99.90;;;;;;5026691;28;20057;-73
2022/12/13 06:35:57;;;;;;;29.52;14.88;;;-4.20;99.90;;;;;;5029444;28;20076;-74
2022/12/13 06:38:24;;;;;;;37.88;16.15;;;-3.40;99.90;;;;;;5029298;28;20041;-74
2022/12/13 06:40:50;;;;;;;34.60;15.52;;;-4.20;99.90;;;;;;5030144;28;20478;-74
2022/12/13 06:43:16;;;;;;;35.47;16.38;;;-4.20;99.90;;;;;;5029107;28;20052;-74
2022/12/13 06:45:41;;;;;;;34.95;15.30;;;-4.20;99.90;;;;;;5029352;28;20042;-74
2022/12/13 06:48:07;;;;;;;36.53;15.75;;;-4.30;99.90;;;;;;5029027;28;20037;-74
2022/12/13 06:50:33;;;;;;;31.55;14.00;;;-4.30;99.90;;;;;;5029725;28;20049;-74
2022/12/13 06:52:58;;;;;;;32.60;14.77;;;-4.20;99.90;;;;;;5046110;28;20038;-74
2022/12/13 06:55:24;;;;;;;33.55;13.63;;;-4.20;99.90;;;;;;5028975;28;20049;-74
2022/12/13 06:57:50;;;;;;;31.15;13.07;;;-4.20;99.90;;;;;;5046523;28;20034;-74
2022/12/13 07:00:16;;;;;;;29.50;12.55;;;-4.30;99.90;;;;;;5030757;28;20049;-74
2022/12/13 07:02:42;;;;;;;37.35;15.48;;;-4.20;99.90;;;;;;5046520;28;20139;-74
2022/12/13 07:05:09;;;;;;;31.50;13.82;;;-4.20;99.90;;;;;;5046151;28;20045;-74
2022/12/13 07:07:34;;;;;;;34.05;14.15;;;-4.30;99.90;;;;;;5029683;28;20045;-74
2022/12/13 07:10:00;;;;;;;30.13;14.73;;;-4.30;99.90;;;;;;5046252;28;20045;-74
2022/12/13 07:12:26;;;;;;;30.88;13.10;;;-4.30;99.90;;;;;;5046161;28;20485;-74
2022/12/13 07:14:51;;;;;;;33.33;14.52;;;-4.30;99.90;;;;;;5046313;28;20053;-74
2022/12/13 07:17:17;;;;;;;28.55;13.20;;;-4.30;99.90;;;;;;5029190;28;20049;-74
2022/12/13 07:19:43;;;;;;;31.60;14.18;;;-4.30;99.90;;;;;;5029205;28;20029;-74
2022/12/13 07:22:09;;;;;;;30.77;13.65;;;-4.00;99.90;;;;;;5029525;28;20389;-74
2022/12/13 07:24:35;;;;;;;24.70;11.55;;;-4.30;99.90;;;;;;5045678;28;20042;-74
2022/12/13 07:27:01;;;;;;;25.15;12.45;;;-4.40;99.90;;;;;;5045746;28;20041;-74
2022/12/13 07:29:27;;;;;;;36.78;14.63;;;-4.40;99.90;;;;;;5019934;28;20107;-74
2022/12/13 07:31:52;;;;;;;37.92;15.77;;;-4.40;99.90;;;;;;4996641;28;20401;-73
2022/12/13 07:34:18;;;;;;;36.88;15.38;;;-4.40;99.90;;;;;;5044979;28;20500;-73
2022/12/13 07:36:44;;;;;;;38.17;15.73;;;-4.40;99.90;;;;;;5045553;28;20124;-73
2022/12/13 07:39:09;;;;;;;35.35;15.88;;;-4.50;99.90;;;;;;5028888;28;20533;-73
2022/12/13 07:41:35;;;;;;;35.92;14.93;;;-4.50;99.90;;;;;;5029167;28;20037;-73
2022/12/13 07:44:01;;;;;;;41.10;16.42;;;-4.50;99.90;;;;;;5046299;28;20513;-73
2022/12/13 07:46:26;;;;;;;35.60;13.77;;;-4.50;99.90;;;;;;5045599;28;20067;-72
2022/12/13 07:48:52;;;;;;;34.20;15.80;;;-4.50;99.90;;;;;;5029382;28;20041;-73
2022/12/13 07:51:18;;;;;;;33.90;14.75;;;-4.50;99.90;;;;;;5029057;28;20044;-73
2022/12/13 07:53:43;;;;;;;34.05;15.63;;;-4.40;99.90;;;;;;5045862;28;20049;-72
2022/12/13 07:56:10;;;;;;;32.85;14.32;;;-4.40;99.90;;;;;;5045996;28;20086;-73
2022/12/13 07:58:36;;;;;;;31.70;14.30;;;-4.40;99.90;;;;;;5030685;28;20143;-73
2022/12/13 08:01:07;;;;;;;38.75;15.60;;;-4.40;99.90;;;;;;5032662;28;20048;-73
2022/12/13 08:03:34;;;;;;;37.78;16.38;;;-4.30;99.90;;;;;;5016140;28;20532;-73
2022/12/13 08:06:08;;;;;;;41.88;17.00;;;-4.30;99.90;;;;;;5032435;28;20113;-73
2022/12/13 08:08:35;;;;;;;29.42;12.35;;;-4.30;99.90;;;;;;5030096;28;20852;-73
2022/12/13 08:11:02;;;;;;;;;;;-4.20;99.90;;;;;;5033084;28;20041;-73
2022/12/13 08:13:27;;;;;;;39.35;16.70;;;-4.20;99.90;;;;;;5032282;28;20004;-73
2022/12/13 08:15:58;;;;;;;35.08;15.85;;;-4.10;99.90;;;;;;5032481;28;20120;-74
2022/12/13 08:18:24;;;;;;;41.72;16.63;;;-4.10;99.90;;;;;;5032017;28;20052;-74
2022/12/13 08:20:50;;;;;;;42.53;16.33;;;-4.00;99.90;;;;;;5049056;28;20037;-74
2022/12/13 08:23:15;;;;;;;39.35;16.27;;;-3.90;99.90;;;;;;5032322;28;21419;-74
2022/12/13 08:25:41;;;;;;;42.58;17.63;;;-3.70;99.90;;;;;;5032459;28;20089;-74
2022/12/13 08:28:07;;;;;;;38.92;17.52;;;-3.50;99.90;;;;;;5049208;28;20037;-74
2022/12/13 08:30:32;;;;;;;36.55;17.40;;;-2.90;99.90;;;;;;5031893;28;20148;-74
2022/12/13 08:32:58;;;;;;;33.63;14.82;;;-2.30;99.90;;;;;;5031747;28;20056;-74
2022/12/13 08:35:27;;;;;;;31.48;15.05;;;-1.80;99.90;;;;;;5031496;28;20124;-74
2022/12/13 08:37:53;;;;;;;35.67;14.73;;;-1.30;99.90;;;;;;5032252;28;20386;-74
2022/12/13 08:40:19;;;;;;;32.40;15.50;;;-0.70;99.90;;;;;;5031483;28;20040;-72
2022/12/13 08:42:44;;;;;;;27.47;13.40;;;-0.40;99.90;;;;;;5048745;28;20097;-73
2022/12/13 08:45:10;;;;;;;30.43;14.27;;;0.00;99.90;;;;;;5031901;28;20337;-73
2022/12/13 08:47:36;;;;;;;30.95;13.85;;;0.20;99.90;;;;;;5048128;28;20296;-73
2022/12/13 08:50:02;;;;;;;31.38;13.98;;;1.50;99.90;;;;;;5048399;28;20047;-73
2022/12/13 08:52:28;;;;;;;25.88;13.00;;;0.90;99.90;;;;;;5048070;28;20480;-73
2022/12/13 08:54:54;;;;;;;26.80;14.07;;;1.00;99.90;;;;;;5031532;28;20100;-73
2022/12/13 08:57:19;;;;;;;27.77;13.30;;;1.00;99.90;;;;;;5047568;28;20048;-73
2022/12/13 08:59:45;;;;;;;28.98;14.52;;;1.40;99.90;;;;;;5048015;28;20802;-74
2022/12/13 09:02:13;;;;;;;29.95;14.02;;;1.60;99.90;;;;;;5031748;28;20038;-73
2022/12/13 09:04:38;;;;;;;28.33;14.80;;;1.60;99.90;;;;;;5014501;28;20037;-73
2022/12/13 09:07:04;;;;;;;32.85;14.63;;;1.30;99.90;;;;;;5047941;28;20037;-74
2022/12/13 09:09:30;;;;;;;29.90;15.00;;;0.90;99.90;;;;;;5030359;28;20049;-74
2022/12/13 09:11:56;;;;;;;29.05;15.45;;;0.70;99.90;;;;;;5047924;28;20280;-74
2022/12/13 09:14:21;;;;;;;27.10;14.48;;;0.30;99.90;;;;;;5014221;28;20029;-74
2022/12/13 09:16:47;;;;;;;25.65;14.23;;;0.60;99.90;;;;;;5030980;28;20419;-74
2022/12/13 09:19:14;;;;;;;29.53;14.43;;;0.90;99.90;;;;;;5026002;28;20034;-74
2022/12/13 09:21:39;;;;;;;27.42;14.52;;;1.00;99.90;;;;;;5030180;28;20280;-74
2022/12/13 09:24:05;;;;;;;29.77;15.40;;;1.10;99.90;;;;;;5030915;28;20056;-74
2022/12/13 09:26:31;;;;;;;27.95;14.43;;;1.40;99.90;;;;;;5030169;28;20033;-74
2022/12/13 09:28:56;;;;;;;28.25;14.20;;;2.10;99.90;;;;;;5030532;28;20505;-74
2022/12/13 09:31:22;;;;;;;28.57;15.07;;;2.00;99.90;;;;;;5030521;28;20120;-74
2022/12/13 09:33:48;;;;;;;34.10;16.85;;;2.00;99.90;;;;;;5030638;28;20300;-74
2022/12/13 09:36:17;;;;;;;26.20;14.50;;;2.00;99.90;;;;;;5047431;28;20060;-74
2022/12/13 09:38:43;;;;;;;31.70;15.90;;;1.90;99.90;;;;;;5030320;28;20099;-74
2022/12/13 09:41:11;;;;;;;31.45;16.10;;;1.90;99.90;;;;;;5030894;28;20405;-74
2022/12/13 09:43:38;;;;;;;30.67;15.75;;;1.80;99.90;;;;;;5046714;28;20131;-74
2022/12/13 09:46:10;;;;;;;31.35;15.00;;;1.80;99.90;;;;;;5030433;28;20038;-74
2022/12/13 09:48:36;;;;;;;30.63;15.73;;;1.80;99.90;;;;;;5030104;28;20077;-74
2022/12/13 09:51:02;;;;;;;28.00;14.23;;;2.00;99.90;;;;;;5030647;28;20126;-74
2022/12/13 09:53:28;;;;;;;29.52;14.40;;;2.10;99.90;;;;;;5029963;28;20065;-74
2022/12/13 09:55:54;;;;;;;29.98;14.85;;;2.40;99.90;;;;;;5046959;28;20072;-75
2022/12/13 09:58:26;;;;;;;30.63;14.88;;;2.60;99.90;;;;;;5046387;28;20060;-75
2022/12/13 10:00:54;;;;;;;26.98;15.15;;;2.70;99.90;;;;;;5013971;28;20044;-75
2022/12/13 10:03:23;;;;;;;27.52;16.27;;;2.70;99.90;;;;;;5013619;28;20045;-74
2022/12/13 10:06:15;;;;;;;31.88;16.52;;;2.50;99.90;;;;;;5029937;28;20069;-74
2022/12/13 10:08:46;;;;;;;26.95;15.07;;;2.70;99.90;;;;;;5025441;28;20040;-74
2022/12/13 10:11:13;;;;;;;28.77;14.95;;;2.90;99.90;;;;;;5029904;28;20053;-75
2022/12/13 10:13:44;;;;;;;26.02;14.00;;;3.10;99.90;;;;;;5023672;28;20037;-74
2022/12/13 10:16:23;;;;;;;30.65;15.30;;;3.40;99.90;;;;;;5013615;28;20474;-74
2022/12/13 10:18:49;;;;;;;28.67;14.95;;;3.40;99.90;;;;;;5028963;28;20048;-75
2022/12/13 10:21:21;;;;;;;28.58;15.50;;;3.20;99.90;;;;;;5028751;28;20437;-75
2022/12/13 10:23:46;;;;;;;27.70;14.65;;;2.80;99.90;;;;;;5026770;28;20033;-75
2022/12/13 10:26:13;;;;;;;29.17;15.27;;;2.80;99.90;;;;;;5046237;28;20048;-74
2022/12/13 10:28:39;;;;;;;;;;;2.70;99.90;;;;;;5029601;28;20367;-74
2022/12/13 10:31:05;;;;;;;27.20;15.02;;;2.60;99.90;;;;;;5029841;28;20012;-75
2022/12/13 10:33:35;;;;;;;28.15;15.57;;;3.20;99.90;;;;;;5029325;28;20549;-75
2022/12/13 10:36:06;;;;;;;27.70;15.25;;;3.20;99.90;;;;;;5046034;28;20083;-75
2022/12/13 10:38:36;;;;;;;25.25;14.35;;;3.20;99.90;;;;;;5029183;28;20048;-75
2022/12/13 10:41:02;;;;;;;30.00;16.73;;;3.60;99.90;;;;;;5029516;28;20046;-75
2022/12/13 10:43:31;;;;;;;29.58;16.23;;;3.90;99.90;;;;;;5029222;28;20186;-75
2022/12/13 10:46:00;;;;;;;27.77;15.00;;;4.40;99.90;;;;;;5029483;28;20116;-73
2022/12/13 10:48:37;;;;;;;28.38;16.20;;;4.70;99.90;;;;;;5024995;28;20045;-74
2022/12/13 10:51:07;;;;;;;28.70;14.80;;;5.50;99.90;;;;;;5013269;28;20457;-74
2022/12/13 10:53:38;;;;;;;29.65;16.15;;;6.30;99.90;;;;;;5029188;28;20083;-75
2022/12/13 10:56:04;;;;;;;26.75;16.00;;;6.60;99.90;;;;;;5029408;28;20052;-74
2022/12/13 10:58:35;;;;;;;;;;;7.00;99.90;;;;;;5029443;28;20107;-74
2022/12/13 11:01:29;;;;;;;25.58;15.90;;;7.40;99.90;;;;;;5012950;28;19917;-74
2022/12/13 11:04:00;;;;;;;23.05;15.20;;;7.60;99.90;;;;;;5029129;28;20192;-75
2022/12/13 11:06:32;;;;;;;22.13;14.10;;;8.70;99.90;;;;;;5029491;28;20108;-74
2022/12/13 11:08:58;;;;;;;22.08;14.60;;;9.50;99.90;;;;;;5029305;28;20069;-74
2022/12/13 11:11:29;;;;;;;20.17;14.10;;;9.60;99.90;;;;;;5046231;28;20076;-74
2022/12/13 11:14:02;;;;;;;23.38;15.45;;;9.40;99.90;;;;;;5029393;28;20292;-74
2022/12/13 11:16:41;;;;;;;23.38;16.17;;;9.30;99.90;;;;;;5029417;28;20044;-74
2022/12/13 11:19:20;;;;;;;23.30;15.48;;;9.40;99.90;;;;;;5026119;28;20037;-74
2022/12/13 11:21:50;;;;;;;25.23;14.98;;;9.70;99.90;;;;;;5027382;28;20041;-74
2022/12/13 11:24:41;;;;;;;19.90;13.13;;;10.10;99.90;;;;;;5012881;28;20095;-74
2022/12/13 11:27:48;;;;;;;20.75;13.77;;;10.60;99.90;;;;;;5024218;28;20103;-74
2022/12/13 11:30:13;;;;;;;23.73;13.73;;;11.00;99.90;;;;;;5029491;28;20491;-74
2022/12/13 11:32:47;;;;;;;19.47;13.40;;;10.90;99.90;;;;;;5045645;28;20154;-73
2022/12/13 11:35:26;;;;;;;19.98;13.48;;;11.20;99.90;;;;;;5032969;28;20358;-73
2022/12/13 11:38:28;;;;;;;18.88;13.63;;;11.10;99.90;;;;;;5046901;28;20046;-74
2022/12/13 11:41:09;;;;;;;21.90;13.80;;;11.20;99.90;;;;;;5028547;28;20061;-74
2022/12/13 11:43:42;;;;;;;19.73;12.70;;;10.90;99.90;;;;;;5031310;28;20049;-74
2022/12/13 11:46:26;;;;;;;20.90;12.82;;;11.10;99.90;;;;;;5031146;28;20041;-74
2022/12/13 11:48:57;;;;;;;18.65;13.05;;;11.50;99.90;;;;;;5032443;28;20041;-75
2022/12/13 11:51:39;;;;;;;18.88;12.75;;;11.60;99.90;;;;;;5032795;28;20041;-74
2022/12/13 11:54:24;;;;;;;18.42;12.18;;;11.80;99.90;;;;;;5030741;28;20103;-74
2022/12/13 11:56:54;;;;;;;19.48;13.30;;;11.80;99.30;;;;;;5032327;28;20042;-74
2022/12/13 11:59:44;;;;;;;20.48;13.35;;;11.70;99.20;;;;;;5029815;28;20046;-74
2022/12/13 12:02:25;;;;;;;19.58;13.27;;;12.20;98.80;;;;;;5032533;28;20110;-74
2022/12/13 12:04:56;;;;;;;16.83;12.20;;;12.20;99.90;;;;;;5032071;28;20048;-74
2022/12/13 12:07:31;;;;;;;19.13;12.48;;;12.40;99.10;;;;;;5032447;28;20030;-74
2022/12/13 12:10:23;;;;;;;18.00;12.60;;;12.30;98.70;;;;;;5032210;28;20087;-74
2022/12/13 12:12:56;;;;;;;17.77;12.48;;;12.30;99.00;;;;;;5031753;28;20080;-74
2022/12/13 12:15:30;;;;;;;18.95;12.60;;;12.30;98.10;;;;;;5032454;28;20473;-74
2022/12/13 12:17:56;;;;;;;17.63;11.98;;;12.50;99.60;;;;;;5030330;28;20048;-74
2022/12/13 12:20:40;;;;;;;18.20;12.18;;;13.00;97.20;;;;;;5031328;28;20095;-74
2022/12/13 12:23:30;;;;;;;18.70;12.30;;;12.80;97.90;;;;;;5047859;28;20103;-74
2022/12/13 12:26:15;;;;;;;18.92;11.60;;;12.50;97.50;;;;;;5031357;28;20048;-74
2022/12/13 12:29:20;;;;;;;16.52;11.77;;;12.70;97.10;;;;;;5014500;28;20053;-74
2022/12/13 12:31:55;;;;;;;15.13;11.38;;;12.50;97.00;;;;;;5004734;28;20038;-75
2022/12/13 12:34:34;;;;;;;16.27;11.27;;;12.60;98.10;;;;;;4985401;28;20229;-74
2022/12/13 12:38:04;;;;;;;17.63;11.27;;;12.30;97.30;;;;;;5002677;28;20249;-74
2022/12/13 12:41:00;;;;;;;15.48;11.95;;;12.30;97.30;;;;;;4996774;28;20042;-74
2022/12/13 12:43:25;;;;;;;14.80;11.07;;;10.90;98.30;;;;;;5008861;28;20042;-74
2022/12/13 12:46:09;;;;;;;16.63;11.07;;;9.80;99.40;;;;;;5022569;28;20378;-74
2022/12/13 12:49:09;;;;;;;16.67;11.38;;;8.90;99.90;;;;;;5031911;28;20465;-74
2022/12/13 12:51:52;;;;;;;17.02;10.45;;;8.30;99.90;;;;;;5030177;28;20045;-74
2022/12/13 12:54:25;;;;;;;16.67;10.85;;;7.70;99.90;;;;;;5030420;28;20047;-74